Terminal Aerodrome Forecast
Issued by NWS

Home | Current Version | Previous Version | Text Only | Print | Product List | Glossary On
Versions: 1 2 3 4 5 6 7 8 9 10 11 12 13 14 15 16 17 18
082
FTUS42 KGSP 201728
TAFAND
TAF
KAND 201728Z 2018/2118 18003KT P6SM SKC
     FM210900 VRB02KT P6SM BKN035
     FM211000 VRB02KT P6SM BKN025 PROB30 2115/2118 4SM -SHRA OVC015=

USA.gov is the U.S. government's official web portal to all federal, state and local government web resources and services.